createdAt,value
2022-11-28T00:00:50.522Z,86
2022-11-28T00:01:57.938Z,86
2022-11-28T00:03:04.913Z,86
2022-11-28T00:04:11.953Z,86
2022-11-28T00:05:19.152Z,86
2022-11-28T00:06:26.344Z,86
2022-11-28T00:07:33.656Z,86
2022-11-28T00:08:40.980Z,86
2022-11-28T00:09:47.849Z,86
2022-11-28T00:10:54.684Z,86
2022-11-28T00:12:01.965Z,86
2022-11-28T00:13:09.188Z,86
2022-11-28T00:14:16.261Z,86
2022-11-28T00:15:23.457Z,86
2022-11-28T00:16:30.650Z,86
2022-11-28T00:17:37.736Z,86
2022-11-28T00:18:45.808Z,86
2022-11-28T00:19:55.864Z,86
2022-11-28T00:21:03.053Z,86
2022-11-28T00:22:10.286Z,86
2022-11-28T00:23:17.464Z,86
2022-11-28T00:24:24.441Z,86
2022-11-28T00:25:31.584Z,86
2022-11-28T00:26:38.836Z,86
2022-11-28T00:27:46.128Z,86
2022-11-28T00:28:53.492Z,86
2022-11-28T00:30:00.537Z,86
2022-11-28T00:31:07.848Z,86
2022-11-28T00:32:17.469Z,86
2022-11-28T00:33:24.487Z,86
2022-11-28T00:34:31.705Z,86
2022-11-28T00:35:38.952Z,86
2022-11-28T00:36:46.071Z,86
2022-11-28T00:37:52.972Z,86
2022-11-28T00:39:00.124Z,86
2022-11-28T00:40:07.283Z,86
2022-11-28T00:41:14.469Z,86
2022-11-28T00:42:21.701Z,86
2022-11-28T00:43:28.920Z,87
2022-11-28T00:44:35.949Z,87
2022-11-28T00:45:43.107Z,87
2022-11-28T00:46:50.223Z,87
2022-11-28T00:47:57.384Z,87
2022-11-28T00:49:04.448Z,87
2022-11-28T00:50:11.517Z,87
2022-11-28T00:51:18.708Z,87
2022-11-28T00:52:25.852Z,87
2022-11-28T00:53:33.091Z,87
2022-11-28T00:54:40.694Z,87
2022-11-28T00:55:47.360Z,86
2022-11-28T00:56:54.479Z,86
2022-11-28T00:58:01.552Z,86
2022-11-28T00:59:08.508Z,86
2022-11-28T01:00:15.504Z,86
2022-11-28T01:01:22.972Z,86
2022-11-28T01:02:30.042Z,86
2022-11-28T01:03:36.846Z,86
2022-11-28T01:04:44.204Z,86
2022-11-28T01:05:51.130Z,86
2022-11-28T01:06:58.444Z,86
2022-11-28T01:08:05.440Z,86
2022-11-28T01:09:12.491Z,86
2022-11-28T01:10:19.752Z,86
2022-11-28T01:11:26.720Z,86
2022-11-28T01:12:33.936Z,86
2022-11-28T01:13:41.124Z,86
2022-11-28T01:14:48.191Z,85
2022-11-28T01:15:55.573Z,85
2022-11-28T01:17:02.544Z,85
2022-11-28T01:18:09.803Z,85
2022-11-28T01:19:16.853Z,85
2022-11-28T01:20:23.896Z,85
2022-11-28T01:21:30.892Z,85
2022-11-28T01:22:37.852Z,85
2022-11-28T01:23:44.852Z,85
2022-11-28T01:24:51.888Z,85
2022-11-28T01:25:58.880Z,85
2022-11-28T01:27:05.807Z,85
2022-11-28T01:28:12.817Z,85
2022-11-28T01:29:19.792Z,85
2022-11-28T01:30:27.011Z,85
2022-11-28T01:31:34.159Z,85
2022-11-28T01:32:41.244Z,85
2022-11-28T01:33:48.630Z,85
2022-11-28T01:34:56.421Z,85
2022-11-28T01:36:03.652Z,85
2022-11-28T01:37:10.840Z,85
2022-11-28T01:38:17.944Z,85
2022-11-28T01:39:25.040Z,85
2022-11-28T01:40:32.304Z,85
2022-11-28T01:41:39.411Z,85
2022-11-28T01:42:46.499Z,85
2022-11-28T01:43:53.576Z,85
2022-11-28T01:45:05.820Z,86
2022-11-28T01:46:18.046Z,85
2022-11-28T01:47:25.251Z,85
2022-11-28T01:48:32.660Z,85
2022-11-28T01:49:39.798Z,85
2022-11-28T01:50:46.689Z,86
2022-11-28T01:51:53.696Z,85
2022-11-28T01:53:01.009Z,85
2022-11-28T01:54:08.052Z,85
2022-11-28T01:55:15.444Z,85
2022-11-28T01:56:22.323Z,85
2022-11-28T01:57:29.480Z,85
2022-11-28T01:58:36.654Z,85
2022-11-28T01:59:43.776Z,85
2022-11-28T02:00:51.100Z,85
2022-11-28T02:01:58.046Z,86
2022-11-28T02:03:05.139Z,86
2022-11-28T02:04:13.316Z,86
2022-11-28T02:05:20.565Z,86
2022-11-28T02:06:27.648Z,86
2022-11-28T02:07:34.875Z,86
2022-11-28T02:08:41.995Z,86
2022-11-28T02:09:49.083Z,86
2022-11-28T02:10:56.096Z,86
2022-11-28T02:12:13.716Z,86
2022-11-28T02:13:26.220Z,86
2022-11-28T02:14:38.471Z,86
2022-11-28T02:15:45.633Z,86
2022-11-28T02:16:57.649Z,86
2022-11-28T02:18:12.990Z,86
2022-11-28T02:19:25.388Z,85
2022-11-28T02:20:42.695Z,86
2022-11-28T02:21:52.095Z,86
2022-11-28T02:23:02.299Z,86
2022-11-28T02:24:19.683Z,86
2022-11-28T02:25:37.066Z,86
2022-11-28T02:26:52.224Z,86
2022-11-28T02:28:09.456Z,86
2022-11-28T02:29:16.871Z,86
2022-11-28T02:30:23.803Z,86
2022-11-28T02:31:33.727Z,86
2022-11-28T02:32:51.143Z,86
2022-11-28T02:34:01.031Z,86
2022-11-28T02:35:08.043Z,86
2022-11-28T02:36:23.419Z,85
2022-11-28T02:37:38.734Z,85
2022-11-28T02:38:56.317Z,85
2022-11-28T02:40:03.412Z,85
2022-11-28T02:41:10.479Z,85
2022-11-28T02:42:22.760Z,85
2022-11-28T02:43:32.692Z,85
2022-11-28T02:44:40.018Z,85
2022-11-28T02:45:46.664Z,85
2022-11-28T02:47:01.589Z,85
2022-11-28T02:48:18.852Z,85
2022-11-28T02:49:31.203Z,85
2022-11-28T02:50:40.726Z,85
2022-11-28T02:51:58.174Z,85
2022-11-28T02:53:05.092Z,85
2022-11-28T02:54:12.243Z,85
2022-11-28T02:55:19.272Z,85
2022-11-28T02:56:26.532Z,85
2022-11-28T02:57:33.516Z,85
2022-11-28T02:58:40.589Z,85
2022-11-28T02:59:47.679Z,85
2022-11-28T03:00:54.813Z,85
2022-11-28T03:02:01.997Z,85
2022-11-28T03:03:08.951Z,85
2022-11-28T03:04:26.504Z,85
2022-11-28T03:05:43.939Z,85
2022-11-28T03:07:01.375Z,85
2022-11-28T03:08:16.053Z,85
2022-11-28T03:09:22.991Z,85
2022-11-28T03:10:29.940Z,85
2022-11-28T03:11:47.453Z,85
2022-11-28T03:13:00.231Z,86
2022-11-28T03:14:15.523Z,86
2022-11-28T03:15:25.173Z,86
2022-11-28T03:16:35.057Z,86
2022-11-28T03:17:49.955Z,86
2022-11-28T03:18:56.875Z,86
2022-11-28T03:20:09.071Z,86
2022-11-28T03:21:21.451Z,86
2022-11-28T03:22:33.808Z,86
2022-11-28T03:23:48.580Z,86
2022-11-28T03:24:56.128Z,86
2022-11-28T03:26:06.056Z,86
2022-11-28T03:27:23.522Z,86
2022-11-28T03:28:39.359Z,86
2022-11-28T03:29:52.991Z,86
2022-11-28T03:31:00.035Z,86
2022-11-28T03:32:07.099Z,86
2022-11-28T03:33:14.059Z,86
2022-11-28T03:34:21.223Z,86
2022-11-28T03:35:28.211Z,86
2022-11-28T03:36:35.242Z,86
2022-11-28T03:37:42.280Z,86
2022-11-28T03:38:49.199Z,86
2022-11-28T03:40:01.343Z,86
2022-11-28T03:41:11.304Z,86
2022-11-28T03:42:18.340Z,86
2022-11-28T03:43:25.391Z,86
2022-11-28T03:44:32.373Z,86
2022-11-28T03:45:39.283Z,86
2022-11-28T03:46:49.270Z,86
2022-11-28T03:47:56.243Z,86
2022-11-28T03:49:05.993Z,86
2022-11-28T03:50:13.015Z,86
2022-11-28T03:51:23.038Z,86
2022-11-28T03:52:35.691Z,85
2022-11-28T03:53:42.837Z,86
2022-11-28T03:54:52.945Z,86
2022-11-28T03:56:02.829Z,86
2022-11-28T03:57:15.023Z,86
2022-11-28T03:58:32.347Z,85
2022-11-28T03:59:47.215Z,86
2022-11-28T04:00:54.213Z,86
2022-11-28T04:02:01.207Z,86
2022-11-28T04:03:13.463Z,86
2022-11-28T04:04:20.511Z,86
2022-11-28T04:05:32.659Z,86
2022-11-28T04:06:44.879Z,86
2022-11-28T04:07:57.154Z,86
2022-11-28T04:09:14.124Z,86
2022-11-28T04:10:16.283Z,86
2022-11-28T04:11:31.324Z,86
2022-11-28T04:12:41.372Z,86
2022-11-28T04:13:53.494Z,86
2022-11-28T04:15:08.858Z,86
2022-11-28T04:16:21.892Z,86
2022-11-28T04:17:34.023Z,86
2022-11-28T04:18:41.071Z,86
2022-11-28T04:19:56.171Z,86
2022-11-28T04:21:03.107Z,86
2022-11-28T04:22:13.338Z,86
2022-11-28T04:23:20.400Z,85
2022-11-28T04:24:27.662Z,85
2022-11-28T04:25:40.527Z,85
2022-11-28T04:26:47.475Z,86
2022-11-28T04:27:54.483Z,85
2022-11-28T04:29:01.431Z,86
2022-11-28T04:30:08.364Z,86
2022-11-28T04:31:15.537Z,86
2022-11-28T04:32:22.693Z,86
2022-11-28T04:33:29.599Z,86
2022-11-28T04:34:37.524Z,85
2022-11-28T04:35:44.531Z,86
2022-11-28T04:36:51.508Z,85
2022-11-28T04:37:58.551Z,86
2022-11-28T04:39:05.622Z,86
2022-11-28T04:40:12.789Z,86
2022-11-28T04:41:19.671Z,85
2022-11-28T04:42:26.891Z,86
2022-11-28T04:43:33.923Z,85
2022-11-28T04:44:41.236Z,85
2022-11-28T04:45:50.610Z,85
2022-11-28T04:46:57.595Z,85
2022-11-28T04:48:04.575Z,85
2022-11-28T04:49:11.572Z,85
2022-11-28T04:50:18.553Z,85
2022-11-28T04:51:25.631Z,86
2022-11-28T04:52:37.763Z,86
2022-11-28T04:53:52.755Z,86
2022-11-28T04:55:05.152Z,86
2022-11-28T04:56:22.658Z,86
2022-11-28T04:57:29.415Z,86
2022-11-28T04:58:37.227Z,86
2022-11-28T04:59:44.348Z,86
2022-11-28T05:00:51.341Z,86
2022-11-28T05:01:58.344Z,86
2022-11-28T05:03:05.235Z,86
2022-11-28T05:04:12.208Z,86
2022-11-28T05:05:19.395Z,86
2022-11-28T05:06:26.350Z,86
2022-11-28T05:07:33.337Z,86
2022-11-28T05:08:40.227Z,86
2022-11-28T05:09:47.219Z,86
2022-11-28T05:10:54.347Z,86
2022-11-28T05:12:01.440Z,86
2022-11-28T05:13:08.442Z,86
2022-11-28T05:14:15.433Z,86
2022-11-28T05:15:22.405Z,86
2022-11-28T05:16:29.533Z,86
2022-11-28T05:17:41.867Z,86
2022-11-28T05:18:43.679Z,86
2022-11-28T05:19:50.667Z,86
2022-11-28T05:20:57.639Z,86
2022-11-28T05:22:04.591Z,86
2022-11-28T05:23:11.619Z,86
2022-11-28T05:24:18.855Z,85
2022-11-28T05:25:25.782Z,85
2022-11-28T05:26:32.791Z,85
2022-11-28T05:27:39.935Z,85
2022-11-28T05:28:46.878Z,85
2022-11-28T05:29:53.911Z,85
2022-11-28T05:31:00.822Z,85
2022-11-28T05:32:07.870Z,85
2022-11-28T05:33:14.944Z,85
2022-11-28T05:34:21.903Z,85
2022-11-28T05:35:28.994Z,85
2022-11-28T05:36:36.798Z,85
2022-11-28T05:37:43.707Z,85
2022-11-28T05:38:50.710Z,85
2022-11-28T05:39:57.710Z,85
2022-11-28T05:41:04.751Z,85
2022-11-28T05:42:11.927Z,85
2022-11-28T05:43:18.967Z,85
2022-11-28T05:44:27.103Z,85
2022-11-28T05:45:32.863Z,85
2022-11-28T05:46:40.051Z,85
2022-11-28T05:47:47.090Z,85
2022-11-28T05:48:54.131Z,85
2022-11-28T05:50:01.138Z,85
2022-11-28T05:51:08.551Z,85
2022-11-28T05:52:15.512Z,85
2022-11-28T05:53:22.578Z,85
2022-11-28T05:54:29.734Z,85
2022-11-28T05:55:36.735Z,85
2022-11-28T05:56:43.691Z,85
2022-11-28T05:57:50.595Z,85
2022-11-28T05:58:57.704Z,85
2022-11-28T06:00:04.690Z,86
2022-11-28T06:01:11.731Z,85
2022-11-28T06:02:18.888Z,85
2022-11-28T06:03:26.086Z,85
2022-11-28T06:04:33.258Z,85
2022-11-28T06:05:43.019Z,85
2022-11-28T06:06:47.453Z,85
2022-11-28T06:07:54.488Z,85
2022-11-28T06:09:03.641Z,85
2022-11-28T06:10:10.887Z,85
2022-11-28T06:11:17.940Z,85
2022-11-28T06:12:25.279Z,85
2022-11-28T06:13:32.275Z,85
2022-11-28T06:14:39.571Z,85
2022-11-28T06:15:46.462Z,85
2022-11-28T06:16:53.610Z,85
2022-11-28T06:18:00.751Z,85
2022-11-28T06:19:08.054Z,85
2022-11-28T06:20:14.980Z,85
2022-11-28T06:21:22.082Z,85
2022-11-28T06:22:29.483Z,86
2022-11-28T06:23:36.418Z,85
2022-11-28T06:24:43.592Z,85
2022-11-28T06:25:50.734Z,85
2022-11-28T06:26:57.759Z,85
2022-11-28T06:28:04.910Z,85
2022-11-28T06:29:11.820Z,85
2022-11-28T06:30:18.903Z,85
2022-11-28T06:31:25.949Z,85
2022-11-28T06:32:33.206Z,85
2022-11-28T06:33:40.246Z,85
2022-11-28T06:34:47.155Z,85
2022-11-28T06:35:54.071Z,85
2022-11-28T06:37:03.763Z,85
2022-11-28T06:38:14.177Z,85
2022-11-28T06:39:17.699Z,85
2022-11-28T06:40:24.763Z,85
2022-11-28T06:41:31.667Z,85
2022-11-28T06:42:38.614Z,85
2022-11-28T06:43:45.622Z,85
2022-11-28T06:44:52.690Z,85
2022-11-28T06:45:59.963Z,85
2022-11-28T06:47:06.808Z,85
2022-11-28T06:48:14.686Z,85
2022-11-28T06:49:21.669Z,85
2022-11-28T06:50:28.730Z,85
2022-11-28T06:51:36.307Z,85
2022-11-28T06:52:43.331Z,85
2022-11-28T06:53:50.327Z,85
2022-11-28T06:54:57.298Z,85
2022-11-28T06:56:04.303Z,85
2022-11-28T06:57:11.454Z,85
2022-11-28T06:58:18.641Z,85
2022-11-28T06:59:25.862Z,85
2022-11-28T07:00:33.046Z,85
2022-11-28T07:01:40.241Z,85
2022-11-28T07:02:47.125Z,85
2022-11-28T07:03:54.148Z,85
2022-11-28T07:05:01.178Z,85
2022-11-28T07:06:08.337Z,85
2022-11-28T07:07:16.712Z,85
2022-11-28T07:08:22.322Z,85
2022-11-28T07:09:29.294Z,85
2022-11-28T07:10:36.346Z,85
2022-11-28T07:11:43.446Z,85
2022-11-28T07:12:50.435Z,85
2022-11-28T07:13:57.507Z,85
2022-11-28T07:15:04.679Z,85
2022-11-28T07:16:12.069Z,85
2022-11-28T07:17:22.191Z,85
2022-11-28T07:18:29.234Z,85
2022-11-28T07:19:36.345Z,85
2022-11-28T07:20:43.453Z,85
2022-11-28T07:21:50.658Z,85
2022-11-28T07:22:57.645Z,85
2022-11-28T07:24:04.990Z,85
2022-11-28T07:25:11.949Z,85
2022-11-28T07:26:19.133Z,85
2022-11-28T07:27:26.270Z,85
2022-11-28T07:28:33.542Z,85
2022-11-28T07:29:40.917Z,85
2022-11-28T07:30:47.802Z,85
2022-11-28T07:31:55.064Z,85
2022-11-28T07:33:02.506Z,85
2022-11-28T07:34:09.541Z,85
2022-11-28T07:35:16.681Z,85
2022-11-28T07:36:23.861Z,85
2022-11-28T07:37:31.016Z,85
2022-11-28T07:38:38.181Z,85
2022-11-28T07:39:45.627Z,85
2022-11-28T07:40:52.514Z,85
2022-11-28T07:41:59.681Z,86
2022-11-28T07:43:06.598Z,85
2022-11-28T07:44:13.858Z,85
2022-11-28T07:45:20.927Z,85
2022-11-28T07:46:28.240Z,85
2022-11-28T07:47:35.307Z,85
2022-11-28T07:48:42.477Z,85
2022-11-28T07:49:49.659Z,85
2022-11-28T07:50:56.773Z,85
2022-11-28T07:52:03.792Z,85
2022-11-28T07:53:10.880Z,85
2022-11-28T07:54:17.970Z,85
2022-11-28T07:55:25.021Z,85
2022-11-28T07:56:56.981Z,85
2022-11-28T07:57:40.103Z,85
2022-11-28T07:58:47.163Z,85
2022-11-28T07:59:54.354Z,85
2022-11-28T08:01:01.267Z,85
2022-11-28T08:02:13.533Z,85
2022-11-28T08:03:20.550Z,85
2022-11-28T08:04:27.720Z,85
2022-11-28T08:05:34.746Z,85
2022-11-28T08:06:41.751Z,85
2022-11-28T08:07:48.945Z,85
2022-11-28T08:08:55.899Z,85
2022-11-28T08:10:03.018Z,85
2022-11-28T08:11:10.316Z,85
2022-11-28T08:12:17.258Z,85
2022-11-28T08:13:24.263Z,85
2022-11-28T08:14:31.266Z,85
2022-11-28T08:15:38.272Z,85
2022-11-28T08:16:45.375Z,85
2022-11-28T08:17:52.539Z,85
2022-11-28T08:18:59.497Z,85
2022-11-28T08:20:06.531Z,85
2022-11-28T08:21:13.645Z,85
2022-11-28T08:22:23.645Z,85
2022-11-28T08:23:30.650Z,85
2022-11-28T08:24:37.812Z,85
2022-11-28T08:25:44.942Z,85
2022-11-28T08:26:52.064Z,85
2022-11-28T08:27:59.050Z,86
2022-11-28T08:29:06.222Z,85
2022-11-28T08:30:13.229Z,85
2022-11-28T08:31:20.278Z,85
2022-11-28T08:32:28.297Z,85
2022-11-28T08:33:35.354Z,85
2022-11-28T08:34:42.595Z,85
2022-11-28T08:35:49.765Z,85
2022-11-28T08:36:56.634Z,85
2022-11-28T08:38:03.889Z,85
2022-11-28T08:39:26.205Z,85
2022-11-28T08:40:18.154Z,85
2022-11-28T08:41:25.250Z,85
2022-11-28T08:42:32.413Z,85
2022-11-28T08:43:39.705Z,85
2022-11-28T08:44:46.790Z,85
2022-11-28T08:45:53.985Z,85
2022-11-28T08:47:00.794Z,85
2022-11-28T08:48:07.932Z,85
2022-11-28T08:49:15.145Z,85
2022-11-28T08:50:22.374Z,85
2022-11-28T08:51:29.499Z,85
2022-11-28T08:52:36.527Z,85
2022-11-28T08:53:47.322Z,85
2022-11-28T08:54:50.871Z,85
2022-11-28T08:55:57.783Z,85
2022-11-28T08:57:05.127Z,85
2022-11-28T08:58:12.033Z,85
2022-11-28T08:59:19.294Z,85
2022-11-28T09:00:26.405Z,85
2022-11-28T09:01:33.594Z,85
2022-11-28T09:02:40.893Z,85
2022-11-28T09:03:48.166Z,85
2022-11-28T09:04:55.107Z,85
2022-11-28T09:06:01.990Z,84
2022-11-28T09:07:09.164Z,84
2022-11-28T09:08:16.179Z,84
2022-11-28T09:09:23.434Z,84
2022-11-28T09:10:30.535Z,84
2022-11-28T09:11:37.622Z,84
2022-11-28T09:12:44.615Z,84
2022-11-28T09:13:51.648Z,84
2022-11-28T09:14:58.797Z,84
2022-11-28T09:16:05.907Z,85
2022-11-28T09:17:12.969Z,84
2022-11-28T09:18:19.963Z,85
2022-11-28T09:19:26.981Z,84
2022-11-28T09:20:34.360Z,84
2022-11-28T09:21:41.574Z,84
2022-11-28T09:22:48.659Z,84
2022-11-28T09:23:55.695Z,84
2022-11-28T09:25:02.692Z,84
2022-11-28T09:26:10.121Z,84
2022-11-28T09:27:19.740Z,84
2022-11-28T09:28:26.908Z,84
2022-11-28T09:29:34.032Z,84
2022-11-28T09:30:41.172Z,84
2022-11-28T09:31:48.187Z,84
2022-11-28T09:32:55.171Z,84
2022-11-28T09:34:02.276Z,84
2022-11-28T09:35:09.312Z,84
2022-11-28T09:36:16.420Z,84
2022-11-28T09:37:23.372Z,84
2022-11-28T09:38:33.276Z,84
2022-11-28T09:39:57.200Z,84
2022-11-28T09:40:47.303Z,84
2022-11-28T09:41:54.282Z,84
2022-11-28T09:43:11.626Z,84
2022-11-28T09:44:23.826Z,84
2022-11-28T09:45:39.032Z,84
2022-11-28T09:46:46.264Z,84
2022-11-28T09:47:53.271Z,84
2022-11-28T09:49:08.279Z,84
2022-11-28T09:50:18.498Z,84
2022-11-28T09:51:36.230Z,84
2022-11-28T09:52:51.403Z,84
2022-11-28T09:54:08.960Z,84
2022-11-28T09:55:19.367Z,84
2022-11-28T09:56:34.155Z,83
2022-11-28T09:57:41.631Z,84
2022-11-28T09:58:51.582Z,84
2022-11-28T09:59:59.130Z,84
2022-11-28T10:01:06.543Z,84
2022-11-28T10:02:24.178Z,83
2022-11-28T10:03:37.445Z,83
2022-11-28T10:04:52.822Z,84
2022-11-28T10:06:02.917Z,83
2022-11-28T10:07:20.287Z,83
2022-11-28T10:08:32.230Z,83
2022-11-28T10:09:45.047Z,83
2022-11-28T10:11:02.113Z,83
2022-11-28T10:12:17.223Z,83
2022-11-28T10:13:36.524Z,83
2022-11-28T10:14:47.282Z,83
2022-11-28T10:16:05.026Z,83
2022-11-28T10:17:17.883Z,83
2022-11-28T10:18:33.021Z,83
2022-11-28T10:19:57.881Z,83
2022-11-28T10:20:54.895Z,83
2022-11-28T10:22:02.203Z,83
2022-11-28T10:23:09.256Z,83
2022-11-28T10:24:19.586Z,83
2022-11-28T10:25:27.811Z,83
2022-11-28T10:26:37.735Z,83
2022-11-28T10:27:44.555Z,83
2022-11-28T10:28:52.108Z,83
2022-11-28T10:29:59.415Z,83
2022-11-28T10:31:06.356Z,83
2022-11-28T10:32:22.435Z,83
2022-11-28T10:33:29.966Z,83
2022-11-28T10:34:44.875Z,83
2022-11-28T10:35:59.762Z,83
2022-11-28T10:37:07.162Z,83
2022-11-28T10:38:23.311Z,83
2022-11-28T10:39:30.186Z,83
2022-11-28T10:40:37.490Z,83
2022-11-28T10:41:49.970Z,83
2022-11-28T10:42:56.911Z,84
2022-11-28T10:44:07.386Z,83
2022-11-28T10:45:20.914Z,83
2022-11-28T10:46:33.374Z,83
2022-11-28T10:47:44.282Z,83
2022-11-28T10:48:59.090Z,83
2022-11-28T10:50:09.759Z,83
2022-11-28T10:51:19.146Z,83
2022-11-28T10:52:28.726Z,83
2022-11-28T10:53:39.462Z,83
2022-11-28T10:54:52.555Z,83
2022-11-28T10:56:11.342Z,83
2022-11-28T10:57:22.286Z,83
2022-11-28T10:58:34.462Z,83
2022-11-28T10:59:46.615Z,83
2022-11-28T11:00:58.734Z,83
2022-11-28T11:02:05.625Z,83
2022-11-28T11:03:20.867Z,83
2022-11-28T11:04:30.792Z,83
2022-11-28T11:05:37.936Z,83
2022-11-28T11:07:06.738Z,82
2022-11-28T11:08:00.166Z,82
2022-11-28T11:09:12.499Z,82
2022-11-28T11:10:19.738Z,82
2022-11-28T11:11:38.246Z,82
2022-11-28T11:12:45.444Z,81
2022-11-28T11:13:53.567Z,81
2022-11-28T11:15:05.615Z,81
2022-11-28T11:16:17.815Z,80
2022-11-28T11:17:24.718Z,80
2022-11-28T11:18:36.930Z,80
2022-11-28T11:19:46.463Z,81
2022-11-28T11:20:53.382Z,80
2022-11-28T11:22:10.647Z,80
2022-11-28T11:23:20.591Z,80
2022-11-28T11:24:27.754Z,79
2022-11-28T11:25:34.719Z,79
2022-11-28T11:26:41.719Z,79
2022-11-28T11:27:48.602Z,79
2022-11-28T11:28:55.526Z,78
2022-11-28T11:30:02.648Z,78
2022-11-28T11:31:19.901Z,78
2022-11-28T11:32:29.416Z,78
2022-11-28T11:33:36.643Z,78
2022-11-28T11:34:43.910Z,78
2022-11-28T11:35:51.042Z,78
2022-11-28T11:36:58.282Z,78
2022-11-28T11:38:15.606Z,79
2022-11-28T11:39:25.495Z,79
2022-11-28T11:40:32.434Z,79
2022-11-28T11:41:39.282Z,79
2022-11-28T11:42:46.266Z,79
2022-11-28T11:43:55.863Z,79
2022-11-28T11:45:13.142Z,79
2022-11-28T11:46:28.214Z,80
2022-11-28T11:47:35.141Z,79
2022-11-28T11:48:44.530Z,79
2022-11-28T11:49:51.448Z,80
2022-11-28T11:50:58.378Z,79
2022-11-28T11:52:05.319Z,80
2022-11-28T11:53:14.949Z,80
2022-11-28T11:54:21.857Z,81
2022-11-28T11:55:28.908Z,80
2022-11-28T11:56:35.843Z,80
2022-11-28T11:57:43.097Z,80
2022-11-28T11:58:50.646Z,80
2022-11-28T11:59:57.627Z,80
2022-11-28T12:01:13.634Z,80
2022-11-28T12:02:20.633Z,80
2022-11-28T12:03:32.849Z,80
2022-11-28T12:04:46.383Z,80
2022-11-28T12:06:13.987Z,80
2022-11-28T12:06:57.766Z,80
2022-11-28T12:08:04.812Z,79
2022-11-28T12:09:22.052Z,80
2022-11-28T12:10:39.379Z,80
2022-11-28T12:11:47.157Z,80
2022-11-28T12:12:53.246Z,80
2022-11-28T12:14:00.182Z,80
2022-11-28T12:15:07.078Z,80
2022-11-28T12:16:19.285Z,80
2022-11-28T12:17:59.357Z,80
2022-11-28T12:18:48.539Z,80
2022-11-28T12:20:03.679Z,80
2022-11-28T12:21:21.174Z,80
2022-11-28T12:22:38.630Z,80
2022-11-28T12:23:54.203Z,80
2022-11-28T12:25:06.358Z,80
2022-11-28T12:26:21.218Z,80
2022-11-28T12:27:30.870Z,80
2022-11-28T12:28:37.834Z,80
2022-11-28T12:29:50.962Z,80
2022-11-28T12:31:03.011Z,81
2022-11-28T12:32:15.370Z,80
2022-11-28T12:33:28.473Z,81
2022-11-28T12:34:43.370Z,80
2022-11-28T12:35:50.388Z,79
2022-11-28T12:37:02.967Z,78
2022-11-28T12:38:11.263Z,75
2022-11-28T12:39:21.887Z,74
2022-11-28T12:40:33.975Z,74
2022-11-28T12:41:45.970Z,73
2022-11-28T12:43:01.142Z,73
2022-11-28T12:44:13.346Z,73
2022-11-28T12:45:22.814Z,73
2022-11-28T12:46:34.881Z,73
2022-11-28T12:47:44.647Z,72
2022-11-28T12:48:56.975Z,72
2022-11-28T12:50:12.054Z,71
2022-11-28T12:51:29.346Z,72
2022-11-28T12:52:46.691Z,72
2022-11-28T12:54:04.042Z,71
2022-11-28T12:55:21.927Z,71
2022-11-28T12:56:36.739Z,71
2022-11-28T12:57:48.828Z,71
2022-11-28T12:59:00.918Z,71
2022-11-28T13:00:13.245Z,71
2022-11-28T13:01:25.834Z,71
2022-11-28T13:02:32.882Z,71
2022-11-28T13:03:42.694Z,71
2022-11-28T13:05:00.150Z,71
2022-11-28T13:06:10.211Z,70
2022-11-28T13:07:19.907Z,70
2022-11-28T13:08:35.315Z,70
2022-11-28T13:09:52.502Z,70
2022-11-28T13:11:04.709Z,70
2022-11-28T13:12:22.001Z,70
2022-11-28T13:13:37.568Z,70
2022-11-28T13:14:47.301Z,71
2022-11-28T13:15:59.273Z,71
2022-11-28T13:17:17.406Z,70
2022-11-28T13:18:24.349Z,70
2022-11-28T13:19:41.587Z,70
2022-11-28T13:20:53.678Z,70
2022-11-28T13:22:05.790Z,70
2022-11-28T13:23:17.912Z,70
2022-11-28T13:24:27.750Z,70
2022-11-28T13:25:45.035Z,70
2022-11-28T13:26:58.127Z,70
2022-11-28T13:28:13.128Z,70
2022-11-28T13:29:25.296Z,71
2022-11-28T13:30:38.162Z,70
2022-11-28T13:31:45.242Z,70
2022-11-28T13:32:57.498Z,70
2022-11-28T13:34:08.134Z,70
2022-11-28T13:35:15.547Z,70
2022-11-28T13:39:08.077Z,70
2022-11-28T13:39:59.290Z,70
2022-11-28T13:41:28.725Z,70
2022-11-28T13:42:52.712Z,71
2022-11-28T13:43:33.603Z,71
2022-11-28T13:44:50.904Z,71
2022-11-28T13:47:46.195Z,71
2022-11-28T13:49:21.934Z,71
2022-11-28T13:50:02.186Z,71
2022-11-28T13:51:19.951Z,71
2022-11-28T13:52:24.667Z,71
2022-11-28T13:53:31.577Z,71
2022-11-28T13:54:38.582Z,71
2022-11-28T13:55:46.578Z,71
2022-11-28T13:56:53.554Z,71
2022-11-28T13:58:10.742Z,71
2022-11-28T13:59:20.730Z,72
2022-11-28T14:00:28.102Z,72
2022-11-28T14:01:34.863Z,72
2022-11-28T14:02:47.090Z,72
2022-11-28T14:03:56.692Z,72
2022-11-28T14:05:12.759Z,72
2022-11-28T14:06:20.494Z,72
2022-11-28T14:07:35.822Z,72
2022-11-28T14:08:42.725Z,72
2022-11-28T14:09:49.654Z,72
2022-11-28T14:11:06.945Z,72
2022-11-28T14:12:19.217Z,72
2022-11-28T14:13:26.176Z,72
2022-11-28T14:14:38.325Z,72
2022-11-28T14:15:56.056Z,73
2022-11-28T14:17:05.842Z,73
2022-11-28T14:18:39.562Z,73
2022-11-28T14:19:30.455Z,73
2022-11-28T14:20:47.537Z,73
2022-11-28T14:21:56.972Z,73
2022-11-28T14:23:12.456Z,73
2022-11-28T14:24:24.708Z,73
2022-11-28T14:25:42.143Z,73
2022-11-28T14:26:49.299Z,73
2022-11-28T14:28:04.442Z,73
2022-11-28T14:29:11.485Z,73
2022-11-28T14:30:26.733Z,74
2022-11-28T14:31:34.476Z,73
2022-11-28T14:32:41.699Z,73
2022-11-28T14:33:48.660Z,73
2022-11-28T14:34:55.884Z,73
2022-11-28T14:36:03.324Z,73
2022-11-28T14:37:10.554Z,73
2022-11-28T14:38:23.202Z,74
2022-11-28T14:39:35.554Z,74
2022-11-28T14:40:42.690Z,74
2022-11-28T14:42:00.290Z,74
2022-11-28T14:43:10.285Z,74
2022-11-28T14:44:22.485Z,74
2022-11-28T14:45:34.679Z,74
2022-11-28T14:46:46.874Z,74
2022-11-28T14:48:04.368Z,74
2022-11-28T14:49:11.504Z,74
2022-11-28T14:50:18.612Z,74
2022-11-28T14:51:25.405Z,74
2022-11-28T14:52:42.695Z,74
2022-11-28T14:53:52.553Z,74
2022-11-28T14:54:59.609Z,74
2022-11-28T14:56:14.532Z,74
2022-11-28T14:57:23.953Z,74
2022-11-28T14:58:30.761Z,74
2022-11-28T14:59:37.646Z,74
2022-11-28T15:00:44.703Z,75
2022-11-28T15:01:54.801Z,74
2022-11-28T15:03:09.586Z,74
2022-11-28T15:04:26.771Z,74
2022-11-28T15:05:41.490Z,74
2022-11-28T15:06:54.088Z,74
2022-11-28T15:08:01.400Z,74
2022-11-28T15:09:18.731Z,74
2022-11-28T15:10:33.560Z,74
2022-11-28T15:11:48.461Z,74
2022-11-28T15:13:00.504Z,74
2022-11-28T15:14:12.840Z,74
2022-11-28T15:15:25.701Z,74
2022-11-28T15:16:33.213Z,74
2022-11-28T15:17:40.052Z,74
2022-11-28T15:18:47.550Z,74
2022-11-28T15:19:54.362Z,75
2022-11-28T15:21:01.272Z,75
2022-11-28T15:22:08.281Z,75
2022-11-28T15:23:25.556Z,75
2022-11-28T15:24:32.506Z,75
2022-11-28T15:25:40.284Z,75
2022-11-28T15:26:47.661Z,75
2022-11-28T15:27:57.332Z,75
2022-11-28T15:29:14.777Z,75
2022-11-28T15:30:28.680Z,74
2022-11-28T15:31:37.360Z,75
2022-11-28T15:32:44.709Z,74
2022-11-28T15:33:51.720Z,74
2022-11-28T15:34:59.119Z,74
2022-11-28T15:36:06.447Z,74
2022-11-28T15:37:21.399Z,74
2022-11-28T15:38:28.658Z,75
2022-11-28T15:39:36.184Z,74
2022-11-28T15:40:43.970Z,74
2022-11-28T15:41:53.997Z,75
2022-11-28T15:43:01.045Z,74
2022-11-28T15:44:08.765Z,74
2022-11-28T15:45:16.403Z,74
2022-11-28T15:46:28.720Z,75
2022-11-28T15:47:35.721Z,75
2022-11-28T15:48:43.040Z,74
2022-11-28T15:49:52.508Z,74
2022-11-28T15:51:07.386Z,74
2022-11-28T15:52:15.379Z,75
2022-11-28T15:53:22.227Z,75
2022-11-28T15:54:29.313Z,74
2022-11-28T15:55:39.700Z,75
2022-11-28T15:56:47.109Z,75
2022-11-28T15:57:59.157Z,75
2022-11-28T15:59:16.491Z,75
2022-11-28T16:00:23.868Z,75
2022-11-28T16:01:32.121Z,75
2022-11-28T16:02:39.539Z,75
2022-11-28T16:03:46.480Z,75
2022-11-28T16:05:01.549Z,75
2022-11-28T16:06:13.824Z,76
2022-11-28T16:07:20.871Z,76
2022-11-28T16:08:27.712Z,76
2022-11-28T16:09:39.968Z,76
2022-11-28T16:10:52.407Z,76
2022-11-28T16:11:59.388Z,76
2022-11-28T16:13:06.717Z,76
2022-11-28T16:14:13.996Z,76
2022-11-28T16:15:27.631Z,76
2022-11-28T16:16:36.073Z,76
2022-11-28T16:17:44.647Z,76
2022-11-28T16:18:52.396Z,77
2022-11-28T16:19:59.829Z,77
2022-11-28T16:21:06.844Z,77
2022-11-28T16:22:13.760Z,77
2022-11-28T16:23:20.675Z,77
2022-11-28T16:24:38.258Z,77
2022-11-28T16:25:50.287Z,78
2022-11-28T16:27:07.576Z,78
2022-11-28T16:28:24.772Z,78
2022-11-28T16:29:40.179Z,78
2022-11-28T16:30:47.614Z,78
2022-11-28T16:31:55.318Z,78